createdAt,value
2023-04-10T00:00:58.675Z,85.36
2023-04-10T00:01:58.723Z,85.16
2023-04-10T00:02:58.815Z,85.57
2023-04-10T00:03:58.992Z,85.57
2023-04-10T00:04:58.784Z,85.36
2023-04-10T00:05:58.592Z,85.36
2023-04-10T00:06:58.568Z,85.47
2023-04-10T00:07:58.549Z,85.68
2023-04-10T00:08:58.552Z,85.36
2023-04-10T00:09:58.579Z,85.57
2023-04-10T00:10:58.550Z,85.26
2023-04-10T00:11:58.554Z,85.26
2023-04-10T00:12:58.518Z,85.26
2023-04-10T00:13:58.501Z,85.71
2023-04-10T00:14:58.526Z,85.40
2023-04-10T00:15:58.529Z,85.26
2023-04-10T00:16:58.503Z,85.30
2023-04-10T00:17:58.474Z,85.09
2023-04-10T00:18:58.428Z,85.16
2023-04-10T00:19:58.486Z,84.74
2023-04-10T00:20:58.405Z,84.88
2023-04-10T00:21:58.416Z,85.26
2023-04-10T00:22:58.421Z,85.40
2023-04-10T00:23:58.448Z,85.68
2023-04-10T00:24:58.496Z,86.23
2023-04-10T00:25:58.399Z,85.92
2023-04-10T00:26:58.332Z,85.71
2023-04-10T00:27:58.388Z,85.82
2023-04-10T00:28:58.442Z,86.13
2023-04-10T00:29:58.321Z,86.33
2023-04-10T00:30:58.346Z,86.33
2023-04-10T00:31:58.398Z,86.13
2023-04-10T00:32:58.314Z,86.23
2023-04-10T00:33:58.368Z,86.13
2023-04-10T00:34:58.344Z,85.92
2023-04-10T00:35:58.319Z,86.33
2023-04-10T00:36:58.292Z,85.92
2023-04-10T00:37:58.277Z,86.54
2023-04-10T00:38:58.216Z,86.47
2023-04-10T00:39:58.267Z,86.68
2023-04-10T00:40:58.227Z,86.27
2023-04-10T00:41:58.227Z,86.79
2023-04-10T00:42:58.173Z,86.75
2023-04-10T00:43:58.168Z,86.58
2023-04-10T00:44:58.362Z,86.37
2023-04-10T00:45:58.172Z,86.99
2023-04-10T00:46:58.134Z,87.10
2023-04-10T00:47:58.184Z,86.79
2023-04-10T00:48:58.112Z,87.20
2023-04-10T00:49:58.167Z,87.10
2023-04-10T00:50:58.139Z,87.30
2023-04-10T00:51:58.723Z,87.30
2023-04-10T00:52:58.111Z,87.20
2023-04-10T00:53:58.054Z,87.10
2023-04-10T00:54:58.144Z,87.10
2023-04-10T00:55:58.118Z,87.30
2023-04-10T00:56:58.061Z,87.30
2023-04-10T00:57:58.007Z,87.41
2023-04-10T00:58:58.027Z,87.30
2023-04-10T00:59:58.019Z,87.41
2023-04-10T01:00:58.132Z,87.72
2023-04-10T01:01:58.083Z,87.30
2023-04-10T01:02:58.172Z,87.30
2023-04-10T01:03:58.677Z,87.45
2023-04-10T01:04:57.974Z,87.87
2023-04-10T01:05:58.001Z,87.66
2023-04-10T01:06:57.926Z,87.45
2023-04-10T01:07:57.919Z,87.30
2023-04-10T01:08:57.942Z,87.45
2023-04-10T01:09:57.898Z,87.66
2023-04-10T01:10:57.894Z,87.66
2023-04-10T01:11:57.998Z,87.14
2023-04-10T01:12:57.856Z,87.66
2023-04-10T01:13:57.981Z,87.35
2023-04-10T01:14:57.874Z,87.97
2023-04-10T01:15:57.849Z,87.45
2023-04-10T01:16:57.916Z,87.87
2023-04-10T01:17:57.811Z,87.59
2023-04-10T01:18:57.800Z,87.70
2023-04-10T01:19:57.778Z,87.66
2023-04-10T01:20:57.779Z,87.87
2023-04-10T01:21:57.874Z,87.87
2023-04-10T01:22:57.755Z,87.80
2023-04-10T01:23:57.742Z,87.76
2023-04-10T01:24:57.739Z,87.76
2023-04-10T01:25:57.728Z,88.07
2023-04-10T01:26:57.788Z,87.76
2023-04-10T01:27:57.724Z,87.59
2023-04-10T01:28:57.683Z,87.97
2023-04-10T01:29:57.693Z,88.69
2023-04-10T01:30:57.831Z,88.01
2023-04-10T01:31:57.878Z,88.94
2023-04-10T01:32:57.788Z,88.84
2023-04-10T01:33:57.817Z,88.84
2023-04-10T01:34:57.623Z,88.73
2023-04-10T01:35:57.722Z,88.53
2023-04-10T01:36:57.672Z,88.63
2023-04-10T01:37:57.676Z,88.63
2023-04-10T01:38:57.583Z,88.21
2023-04-10T01:39:57.581Z,88.21
2023-04-10T01:40:57.566Z,88.21
2023-04-10T01:41:57.555Z,88.21
2023-04-10T01:42:57.608Z,88.84
2023-04-10T01:43:57.553Z,88.11
2023-04-10T01:44:57.578Z,88.21
2023-04-10T01:45:57.665Z,88.21
2023-04-10T01:46:57.583Z,88.53
2023-04-10T01:47:57.639Z,88.01
2023-04-10T01:48:57.494Z,88.01
2023-04-10T01:49:57.575Z,88.73
2023-04-10T01:50:57.483Z,88.98
2023-04-10T01:51:57.520Z,89.29
2023-04-10T01:52:57.460Z,88.98
2023-04-10T01:53:57.428Z,89.19
2023-04-10T01:54:57.419Z,89.19
2023-04-10T01:55:57.451Z,89.19
2023-04-10T01:56:57.470Z,89.09
2023-04-10T01:57:57.388Z,89.61
2023-04-10T01:58:57.377Z,89.61
2023-04-10T01:59:57.391Z,89.19
2023-04-10T02:00:57.361Z,89.29
2023-04-10T02:01:57.501Z,89.92
2023-04-10T02:02:57.420Z,90.23
2023-04-10T02:03:57.622Z,89.81
2023-04-10T02:04:57.435Z,90.12
2023-04-10T02:05:57.304Z,90.12
2023-04-10T02:06:57.366Z,90.12
2023-04-10T02:07:57.426Z,90.12
2023-04-10T02:08:57.336Z,90.23
2023-04-10T02:09:57.274Z,90.12
2023-04-10T02:10:57.277Z,90.02
2023-04-10T02:11:57.301Z,90.12
2023-04-10T02:12:57.239Z,90.12
2023-04-10T02:13:57.268Z,90.23
2023-04-10T02:14:57.219Z,90.23
2023-04-10T02:15:57.301Z,90.58
2023-04-10T02:16:57.224Z,89.81
2023-04-10T02:17:57.282Z,90.02
2023-04-10T02:18:57.582Z,90.58
2023-04-10T02:19:57.158Z,90.54
2023-04-10T02:20:57.167Z,90.44
2023-04-10T02:21:57.133Z,90.54
2023-04-10T02:22:57.178Z,90.44
2023-04-10T02:23:57.134Z,90.54
2023-04-10T02:24:57.101Z,90.64
2023-04-10T02:25:57.113Z,90.85
2023-04-10T02:26:57.086Z,90.54
2023-04-10T02:27:57.152Z,90.64
2023-04-10T02:28:57.072Z,90.44
2023-04-10T02:29:57.065Z,90.64
2023-04-10T02:30:57.059Z,90.54
2023-04-10T02:31:57.045Z,90.44
2023-04-10T02:32:57.154Z,90.54
2023-04-10T02:33:57.019Z,90.44
2023-04-10T02:34:56.996Z,90.44
2023-04-10T02:35:57.011Z,90.44
2023-04-10T02:36:57.026Z,90.54
2023-04-10T02:37:57.072Z,90.54
2023-04-10T02:38:56.959Z,90.75
2023-04-10T02:39:56.986Z,90.44
2023-04-10T02:40:57.003Z,90.44
2023-04-10T02:41:56.942Z,90.44
2023-04-10T02:42:56.980Z,90.33
2023-04-10T02:43:56.937Z,90.33
2023-04-10T02:44:56.910Z,90.75
2023-04-10T02:45:56.947Z,90.54
2023-04-10T02:46:56.905Z,90.23
2023-04-10T02:47:56.935Z,90.44
2023-04-10T02:48:56.915Z,90.33
2023-04-10T02:49:56.853Z,90.33
2023-04-10T02:50:56.840Z,90.44
2023-04-10T02:51:56.831Z,90.64
2023-04-10T02:52:56.835Z,91.06
2023-04-10T02:53:56.866Z,90.33
2023-04-10T02:54:56.796Z,90.91
2023-04-10T02:55:56.799Z,90.85
2023-04-10T02:56:56.771Z,90.60
2023-04-10T02:57:56.826Z,90.39
2023-04-10T02:58:56.746Z,90.60
2023-04-10T02:59:56.756Z,90.60
2023-04-10T03:00:56.755Z,90.50
2023-04-10T03:01:56.816Z,90.50
2023-04-10T03:02:56.872Z,90.50
2023-04-10T03:03:57.165Z,89.77
2023-04-10T03:04:56.781Z,90.19
2023-04-10T03:05:56.667Z,89.77
2023-04-10T03:06:56.708Z,89.56
2023-04-10T03:07:56.661Z,89.98
2023-04-10T03:08:56.764Z,90.19
2023-04-10T03:09:56.637Z,90.19
2023-04-10T03:10:56.630Z,89.98
2023-04-10T03:11:56.620Z,90.08
2023-04-10T03:12:56.617Z,90.08
2023-04-10T03:13:56.761Z,90.29
2023-04-10T03:14:56.603Z,89.87
2023-04-10T03:15:56.743Z,90.19
2023-04-10T03:16:56.578Z,90.60
2023-04-10T03:17:56.568Z,90.50
2023-04-10T03:18:56.538Z,89.87
2023-04-10T03:19:56.576Z,90.04
2023-04-10T03:20:56.568Z,89.94
2023-04-10T03:21:56.514Z,89.83
2023-04-10T03:22:56.557Z,90.45
2023-04-10T03:23:56.494Z,90.45
2023-04-10T03:24:56.478Z,90.66
2023-04-10T03:25:56.476Z,89.89
2023-04-10T03:26:56.460Z,90.10
2023-04-10T03:27:56.503Z,90.04
2023-04-10T03:28:56.448Z,90.20
2023-04-10T03:29:56.416Z,89.07
2023-04-10T03:30:56.460Z,88.86
2023-04-10T03:31:56.494Z,89.07
2023-04-10T03:32:56.389Z,88.86
2023-04-10T03:33:56.778Z,88.92
2023-04-10T03:34:56.381Z,87.88
2023-04-10T03:35:56.386Z,88.40
2023-04-10T03:36:56.421Z,87.78
2023-04-10T03:37:56.340Z,88.61
2023-04-10T03:38:56.391Z,87.88
2023-04-10T03:39:56.338Z,87.68
2023-04-10T03:40:56.313Z,87.68
2023-04-10T03:41:56.320Z,88.40
2023-04-10T03:42:56.292Z,88.61
2023-04-10T03:43:56.631Z,87.27
2023-04-10T03:44:56.270Z,87.68
2023-04-10T03:45:56.251Z,87.57
2023-04-10T03:46:56.325Z,87.78
2023-04-10T03:47:56.294Z,87.88
2023-04-10T03:48:56.227Z,87.37
2023-04-10T03:49:56.221Z,87.57
2023-04-10T03:50:56.237Z,87.23
2023-04-10T03:51:56.259Z,87.54
2023-04-10T03:52:56.196Z,87.23
2023-04-10T03:53:56.373Z,87.02
2023-04-10T03:54:56.254Z,87.88
2023-04-10T03:55:56.195Z,87.43
2023-04-10T03:56:56.161Z,87.16
2023-04-10T03:57:56.191Z,87.02
2023-04-10T03:58:56.131Z,87.02
2023-04-10T03:59:56.104Z,87.33
2023-04-10T04:00:56.160Z,87.33
2023-04-10T04:01:56.143Z,86.71
2023-04-10T04:02:56.276Z,87.27
2023-04-10T04:03:56.613Z,87.02
2023-04-10T04:04:56.128Z,87.64
2023-04-10T04:05:56.130Z,87.02
2023-04-10T04:06:56.037Z,87.33
2023-04-10T04:07:56.034Z,87.02
2023-04-10T04:08:56.018Z,86.19
2023-04-10T04:09:56.467Z,86.50
2023-04-10T04:10:56.055Z,86.40
2023-04-10T04:11:55.979Z,86.71
2023-04-10T04:12:55.976Z,86.60
2023-04-10T04:13:56.188Z,86.71
2023-04-10T04:14:55.960Z,86.71
2023-04-10T04:15:56.011Z,86.85
2023-04-10T04:16:55.988Z,87.06
2023-04-10T04:17:56.007Z,87.16
2023-04-10T04:18:55.902Z,87.02
2023-04-10T04:19:56.134Z,86.60
2023-04-10T04:20:55.973Z,87.02
2023-04-10T04:21:55.883Z,86.81
2023-04-10T04:22:55.942Z,87.02
2023-04-10T04:23:55.946Z,87.06
2023-04-10T04:24:55.830Z,86.33
2023-04-10T04:25:55.834Z,86.33
2023-04-10T04:26:55.810Z,86.75
2023-04-10T04:27:55.863Z,86.85
2023-04-10T04:28:55.812Z,86.96
2023-04-10T04:29:55.791Z,86.85
2023-04-10T04:30:55.802Z,87.16
2023-04-10T04:31:55.900Z,87.06
2023-04-10T04:32:55.805Z,87.06
2023-04-10T04:33:56.061Z,87.57
2023-04-10T04:34:55.769Z,86.75
2023-04-10T04:35:55.805Z,86.96
2023-04-10T04:36:55.808Z,88.09
2023-04-10T04:37:55.735Z,87.57
2023-04-10T04:38:55.706Z,87.37
2023-04-10T04:39:55.712Z,88.09
2023-04-10T04:40:55.688Z,87.37
2023-04-10T04:41:55.772Z,87.37
2023-04-10T04:42:55.661Z,87.16
2023-04-10T04:43:55.947Z,87.37
2023-04-10T04:44:55.654Z,87.37
2023-04-10T04:45:55.665Z,87.37
2023-04-10T04:46:55.686Z,87.06
2023-04-10T04:47:55.639Z,87.37
2023-04-10T04:48:55.598Z,86.85
2023-04-10T04:49:55.606Z,86.96
2023-04-10T04:50:55.598Z,87.06
2023-04-10T04:51:55.632Z,87.68
2023-04-10T04:52:55.567Z,87.57
2023-04-10T04:53:55.791Z,87.57
2023-04-10T04:54:55.569Z,87.37
2023-04-10T04:55:55.527Z,87.37
2023-04-10T04:56:55.585Z,87.99
2023-04-10T04:57:55.499Z,87.78
2023-04-10T04:58:55.711Z,87.57
2023-04-10T04:59:55.481Z,87.57
2023-04-10T05:00:55.534Z,87.06
2023-04-10T05:01:55.600Z,86.81
2023-04-10T05:02:55.626Z,87.33
2023-04-10T05:03:55.507Z,87.37
2023-04-10T05:04:55.496Z,87.27
2023-04-10T05:05:55.423Z,86.85
2023-04-10T05:06:55.459Z,86.81
2023-04-10T05:07:55.417Z,86.91
2023-04-10T05:08:55.687Z,86.40
2023-04-10T05:09:55.376Z,86.71
2023-04-10T05:10:55.378Z,86.81
2023-04-10T05:11:55.416Z,87.02
2023-04-10T05:12:55.345Z,86.71
2023-04-10T05:13:55.344Z,86.40
2023-04-10T05:14:55.324Z,86.91
2023-04-10T05:15:55.319Z,86.77
2023-04-10T05:16:55.371Z,85.94
2023-04-10T05:17:55.366Z,86.98
2023-04-10T05:18:55.681Z,86.88
2023-04-10T05:19:55.268Z,86.15
2023-04-10T05:20:55.337Z,86.25
2023-04-10T05:21:55.249Z,86.05
2023-04-10T05:22:55.239Z,86.01
2023-04-10T05:23:55.235Z,85.60
2023-04-10T05:24:55.235Z,85.39
2023-04-10T05:25:55.270Z,85.49
2023-04-10T05:26:55.202Z,85.28
2023-04-10T05:27:55.204Z,84.87
2023-04-10T05:28:55.512Z,85.18
2023-04-10T05:29:55.163Z,85.49
2023-04-10T05:30:55.309Z,84.83
2023-04-10T05:31:55.156Z,85.04
2023-04-10T05:32:55.254Z,84.73
2023-04-10T05:33:55.140Z,84.52
2023-04-10T05:34:55.108Z,84.42
2023-04-10T05:35:55.142Z,83.97
2023-04-10T05:36:57.518Z,84.31
2023-04-10T05:37:55.195Z,84.31
2023-04-10T05:38:55.269Z,84.07
2023-04-10T05:39:55.075Z,83.55
2023-04-10T05:40:55.047Z,83.72
2023-04-10T05:41:55.033Z,83.62
2023-04-10T05:42:55.095Z,83.10
2023-04-10T05:43:55.069Z,83.72
2023-04-10T05:44:55.043Z,83.68
2023-04-10T05:45:55.036Z,83.48
2023-04-10T05:46:55.000Z,83.06
2023-04-10T05:47:55.000Z,83.03
2023-04-10T05:48:55.338Z,83.44
2023-04-10T05:49:54.982Z,83.13
2023-04-10T05:50:54.949Z,83.23
2023-04-10T05:51:54.976Z,82.20
2023-04-10T05:52:54.942Z,82.10
2023-04-10T05:53:54.990Z,82.40
2023-04-10T05:54:54.933Z,81.89
2023-04-10T05:55:54.888Z,81.68
2023-04-10T05:56:54.904Z,81.85
2023-04-10T05:57:54.888Z,81.23
2023-04-10T05:58:55.196Z,81.65
2023-04-10T05:59:54.855Z,81.23
2023-04-10T06:00:54.836Z,81.44
2023-04-10T06:01:54.885Z,81.44
2023-04-10T06:02:54.909Z,80.89
2023-04-10T06:03:55.088Z,80.72
2023-04-10T06:04:54.959Z,80.99
2023-04-10T06:05:54.803Z,80.79
2023-04-10T06:06:54.785Z,80.79
2023-04-10T06:07:56.843Z,81.20
2023-04-10T06:08:55.060Z,80.79
2023-04-10T06:09:54.757Z,80.47
2023-04-10T06:10:54.746Z,80.16
2023-04-10T06:11:54.755Z,80.47
2023-04-10T06:12:54.733Z,80.06
2023-04-10T06:13:54.791Z,80.47
2023-04-10T06:14:54.773Z,80.47
2023-04-10T06:15:54.693Z,79.86
2023-04-10T06:16:54.708Z,79.86
2023-04-10T06:17:54.702Z,79.20
2023-04-10T06:18:54.918Z,79.30
2023-04-10T06:19:54.711Z,79.51
2023-04-10T06:20:54.642Z,79.79
2023-04-10T06:21:54.770Z,79.47
2023-04-10T06:22:54.616Z,79.37
2023-04-10T06:23:54.851Z,78.96
2023-04-10T06:24:54.655Z,78.34
2023-04-10T06:25:54.612Z,78.14
2023-04-10T06:26:54.597Z,78.55
2023-04-10T06:27:54.560Z,78.51
2023-04-10T06:28:54.718Z,77.17
2023-04-10T06:29:54.608Z,77.48
2023-04-10T06:30:54.607Z,77.17
2023-04-10T06:31:54.593Z,77.03
2023-04-10T06:32:54.563Z,77.03
2023-04-10T06:33:54.499Z,76.31
2023-04-10T06:34:54.502Z,77.45
2023-04-10T06:35:54.648Z,77.00
2023-04-10T06:36:54.478Z,77.41
2023-04-10T06:37:54.461Z,76.28
2023-04-10T06:38:54.714Z,75.67
2023-04-10T06:39:54.440Z,76.28
2023-04-10T06:40:54.469Z,76.76
2023-04-10T06:41:54.403Z,75.73
2023-04-10T06:42:54.418Z,75.42
2023-04-10T06:43:54.397Z,75.42
2023-04-10T06:44:54.407Z,75.08
2023-04-10T06:45:54.448Z,75.90
2023-04-10T06:46:54.406Z,76.10
2023-04-10T06:47:54.462Z,74.32
2023-04-10T06:48:54.843Z,74.84
2023-04-10T06:49:54.364Z,74.12
2023-04-10T06:50:54.386Z,73.57
2023-04-10T06:51:54.313Z,74.19
2023-04-10T06:52:54.312Z,73.88
2023-04-10T06:53:54.298Z,72.85
2023-04-10T06:54:54.323Z,74.26
2023-04-10T06:55:54.335Z,73.64
2023-04-10T06:56:54.259Z,72.82
2023-04-10T06:57:54.233Z,74.26
2023-04-10T06:58:54.448Z,73.71
2023-04-10T06:59:54.241Z,73.19
2023-04-10T07:00:54.327Z,72.17
2023-04-10T07:01:54.237Z,71.83
2023-04-10T07:02:54.235Z,70.91
2023-04-10T07:03:54.203Z,71.93
2023-04-10T07:04:54.176Z,71.93
2023-04-10T07:05:54.251Z,72.55
2023-04-10T07:06:54.167Z,72.41
2023-04-10T07:07:54.150Z,72.31
2023-04-10T07:08:54.440Z,71.69
2023-04-10T07:09:54.142Z,71.39
2023-04-10T07:10:54.929Z,72.20
2023-04-10T07:11:54.115Z,70.26
2023-04-10T07:12:54.123Z,70.23
2023-04-10T07:13:54.086Z,71.15
2023-04-10T07:14:54.086Z,71.66
2023-04-10T07:15:54.102Z,71.15
2023-04-10T07:16:54.148Z,71.36
2023-04-10T07:17:54.052Z,70.23
2023-04-10T07:18:54.265Z,69.89
2023-04-10T07:19:54.081Z,69.99
2023-04-10T07:20:54.020Z,69.48
2023-04-10T07:21:54.090Z,69.34
2023-04-10T07:22:54.391Z,70.06
2023-04-10T07:23:53.982Z,69.45
2023-04-10T07:24:54.024Z,69.96
2023-04-10T07:25:53.974Z,67.60
2023-04-10T07:26:53.948Z,67.19
2023-04-10T07:27:54.817Z,67.37
2023-04-10T07:28:54.022Z,67.68
2023-04-10T07:29:54.389Z,67.88
2023-04-10T07:30:54.458Z,67.57
2023-04-10T07:31:53.994Z,66.42
2023-04-10T07:32:54.033Z,67.16
2023-04-10T07:33:53.882Z,67.44
2023-04-10T07:34:53.906Z,68.46
2023-04-10T07:35:53.864Z,67.44
2023-04-10T07:36:53.837Z,67.44
2023-04-10T07:37:53.944Z,66.08
2023-04-10T07:38:54.108Z,67.00
2023-04-10T07:39:53.811Z,66.90
2023-04-10T07:40:53.829Z,66.86
2023-04-10T07:41:53.780Z,66.86
2023-04-10T07:42:54.054Z,65.13
2023-04-10T07:43:53.888Z,64.52
2023-04-10T07:44:53.857Z,65.31
2023-04-10T07:45:53.739Z,65.71
2023-04-10T07:46:55.452Z,64.39
2023-04-10T07:47:53.805Z,63.44
2023-04-10T07:48:53.849Z,63.34
2023-04-10T07:49:53.686Z,63.34
2023-04-10T07:50:54.039Z,63.64
2023-04-10T07:51:53.675Z,63.54
2023-04-10T07:52:53.655Z,62.73
2023-04-10T07:53:53.660Z,61.98
2023-04-10T07:54:53.670Z,63.71
2023-04-10T07:55:53.725Z,63.92
2023-04-10T07:56:53.633Z,60.96
2023-04-10T07:57:53.615Z,62.56
2023-04-10T07:58:53.947Z,61.54
2023-04-10T07:59:53.861Z,63.10
2023-04-10T08:00:53.662Z,61.65
2023-04-10T08:01:53.669Z,60.73
2023-04-10T08:02:53.934Z,59.81
2023-04-10T08:03:53.751Z,60.32
2023-04-10T08:04:53.697Z,60.12
2023-04-10T08:05:53.605Z,61.52
2023-04-10T08:06:53.558Z,60.80
2023-04-10T08:07:53.502Z,59.89
2023-04-10T08:08:53.707Z,59.58
2023-04-10T08:09:53.493Z,59.07
2023-04-10T08:10:53.894Z,60.98
2023-04-10T08:11:53.495Z,61.00
2023-04-10T08:12:53.475Z,58.64
2023-04-10T08:13:53.447Z,58.94
2023-04-10T08:14:53.487Z,59.25
2023-04-10T08:15:53.476Z,60.47
2023-04-10T08:16:53.520Z,60.98
2023-04-10T08:17:53.424Z,59.48
2023-04-10T08:18:53.691Z,58.74
2023-04-10T08:19:53.369Z,57.65
2023-04-10T08:20:53.440Z,57.95
2023-04-10T08:21:53.357Z,58.26
2023-04-10T08:22:53.339Z,59.07
2023-04-10T08:23:53.349Z,59.71
2023-04-10T08:24:53.379Z,60.09
2023-04-10T08:25:53.414Z,59.81
2023-04-10T08:26:53.374Z,59.30
2023-04-10T08:27:53.296Z,57.67
2023-04-10T08:28:53.674Z,57.65
2023-04-10T08:29:53.256Z,59.07
2023-04-10T08:30:53.366Z,60.39
2023-04-10T08:31:53.247Z,59.28
2023-04-10T08:32:53.315Z,58.87
2023-04-10T08:33:53.699Z,58.15
2023-04-10T08:34:53.207Z,59.45
2023-04-10T08:35:53.244Z,58.03
2023-04-10T08:36:53.191Z,57.52
2023-04-10T08:38:07.668Z,57.62
2023-04-10T08:38:54.188Z,59.05
2023-04-10T08:39:53.156Z,57.52
2023-04-10T08:40:53.152Z,56.90
2023-04-10T08:41:53.147Z,57.62
2023-04-10T08:42:53.204Z,58.94
2023-04-10T08:43:53.426Z,59.66
2023-04-10T08:44:53.158Z,58.74
2023-04-10T08:45:53.154Z,58.84
2023-04-10T08:46:53.097Z,57.31
2023-04-10T08:47:53.161Z,59.35
2023-04-10T08:48:53.123Z,58.64
2023-04-10T08:49:53.053Z,58.44
2023-04-10T08:50:53.042Z,57.52
2023-04-10T08:51:53.089Z,59.55
2023-04-10T08:52:53.026Z,60.39
2023-04-10T08:53:53.333Z,58.94
2023-04-10T08:54:53.008Z,58.67
2023-04-10T08:55:53.061Z,59.35
2023-04-10T08:56:52.982Z,60.77
2023-04-10T08:58:00.682Z,59.45
2023-04-10T08:58:54.039Z,58.33
2023-04-10T08:59:52.984Z,58.84
2023-04-10T09:00:52.964Z,58.92
2023-04-10T09:01:52.992Z,59.12
2023-04-10T09:02:53.042Z,58.30
2023-04-10T09:03:53.159Z,59.63
2023-04-10T09:04:53.075Z,61.63
2023-04-10T09:05:52.964Z,59.39
2023-04-10T09:06:52.900Z,57.87
2023-04-10T09:07:52.876Z,59.19
2023-04-10T09:08:52.857Z,58.78
2023-04-10T09:09:52.894Z,57.36
2023-04-10T09:10:54.511Z,57.16
2023-04-10T09:11:52.897Z,57.06
2023-04-10T09:12:52.824Z,58.69
2023-04-10T09:13:52.867Z,58.48
2023-04-10T09:14:52.795Z,58.99
2023-04-10T09:15:52.825Z,57.77
2023-04-10T09:16:52.852Z,57.56
2023-04-10T09:17:52.885Z,58.89
2023-04-10T09:18:52.749Z,58.99
2023-04-10T09:19:52.856Z,58.89
2023-04-10T09:20:52.757Z,59.27
2023-04-10T09:21:52.897Z,60.08
2023-04-10T09:22:52.737Z,59.06
2023-04-10T09:23:52.967Z,59.06
2023-04-10T09:24:52.732Z,58.53
2023-04-10T09:25:52.722Z,58.76
2023-04-10T09:26:52.689Z,59.14
2023-04-10T09:27:52.723Z,56.80
2023-04-10T09:28:52.635Z,57.10
2023-04-10T09:29:52.748Z,56.49
2023-04-10T09:30:52.676Z,57.10
2023-04-10T09:31:52.731Z,58.70
2023-04-10T09:32:52.643Z,56.37
2023-04-10T09:33:52.729Z,56.57
2023-04-10T09:34:52.593Z,56.87
2023-04-10T09:35:52.569Z,56.77
2023-04-10T09:36:52.627Z,56.95
2023-04-10T09:37:52.547Z,56.06
2023-04-10T09:38:52.544Z,55.96
2023-04-10T09:39:52.618Z,56.34
2023-04-10T09:40:54.416Z,54.72
2023-04-10T09:41:52.507Z,56.04
2023-04-10T09:42:52.496Z,56.65
2023-04-10T09:43:52.481Z,55.02
2023-04-10T09:44:52.485Z,56.21
2023-04-10T09:45:52.535Z,56.52
2023-04-10T09:46:52.572Z,56.52
2023-04-10T09:47:52.502Z,56.01
2023-04-10T09:48:52.444Z,54.59
2023-04-10T09:49:52.470Z,54.46
2023-04-10T09:50:52.485Z,54.77
2023-04-10T09:51:52.420Z,55.88
2023-04-10T09:52:52.386Z,55.07
2023-04-10T09:53:52.762Z,56.26
2023-04-10T09:54:52.374Z,53.93
2023-04-10T09:55:52.441Z,55.04
2023-04-10T09:56:52.333Z,54.64
2023-04-10T09:57:52.345Z,54.24
2023-04-10T09:58:52.583Z,53.80
2023-04-10T09:59:52.410Z,53.02
2023-04-10T10:00:52.304Z,54.44
2023-04-10T10:01:52.433Z,54.61
2023-04-10T10:02:52.405Z,53.40
2023-04-10T10:03:52.342Z,52.28
2023-04-10T10:04:52.305Z,52.59
2023-04-10T10:05:52.258Z,52.99
2023-04-10T10:06:52.248Z,53.47
2023-04-10T10:07:52.249Z,52.79
2023-04-10T10:08:52.291Z,54.11
2023-04-10T10:09:52.263Z,52.15
2023-04-10T10:10:52.242Z,52.86
2023-04-10T10:11:52.186Z,54.18
2023-04-10T10:12:52.175Z,53.58
2023-04-10T10:13:52.196Z,53.27
2023-04-10T10:14:52.213Z,52.06
2023-04-10T10:15:52.238Z,51.86
2023-04-10T10:16:52.131Z,51.86
2023-04-10T10:17:52.174Z,52.56
2023-04-10T10:18:52.546Z,52.06
2023-04-10T10:19:52.193Z,51.95
2023-04-10T10:20:52.157Z,52.46
2023-04-10T10:21:52.081Z,53.34
2023-04-10T10:22:52.152Z,54.86
2023-04-10T10:23:52.041Z,53.14
2023-04-10T10:24:52.059Z,52.94
2023-04-10T10:25:52.055Z,49.50
2023-04-10T10:26:52.020Z,51.30
2023-04-10T10:27:52.079Z,50.09
2023-04-10T10:28:52.034Z,51.30
2023-04-10T10:29:51.983Z,49.98
2023-04-10T10:30:52.000Z,49.68
2023-04-10T10:31:51.983Z,50.69
2023-04-10T10:32:52.072Z,51.30
2023-04-10T10:33:52.008Z,50.16
2023-04-10T10:34:51.938Z,48.03
2023-04-10T10:35:51.919Z,48.14
2023-04-10T10:36:52.016Z,47.23
2023-04-10T10:37:51.896Z,48.65
2023-04-10T10:38:52.410Z,46.44
2023-04-10T10:39:51.891Z,47.33
2023-04-10T10:40:51.880Z,46.95
2023-04-10T10:41:51.945Z,48.26
2023-04-10T10:42:51.874Z,46.95
2023-04-10T10:43:51.897Z,47.25
2023-04-10T10:44:51.859Z,47.66
2023-04-10T10:45:51.850Z,48.26
2023-04-10T10:46:51.873Z,46.97
2023-04-10T10:47:51.838Z,48.49
2023-04-10T10:48:52.192Z,46.87
2023-04-10T10:49:51.776Z,47.07
2023-04-10T10:50:51.766Z,47.27
2023-04-10T10:51:51.829Z,48.69
2023-04-10T10:52:51.756Z,47.67
2023-04-10T10:53:51.892Z,47.07
2023-04-10T10:54:59.239Z,47.17
2023-04-10T10:55:52.713Z,48.28
2023-04-10T10:56:51.706Z,46.87
2023-04-10T10:57:51.698Z,48.79
2023-04-10T10:58:51.763Z,48.39
2023-04-10T10:59:51.687Z,47.45
2023-04-10T11:00:51.746Z,48.77
2023-04-10T11:01:51.876Z,47.25
2023-04-10T11:02:51.793Z,48.57
2023-04-10T11:03:51.776Z,49.78
2023-04-10T11:04:51.615Z,47.05
2023-04-10T11:05:51.630Z,47.66
2023-04-10T11:06:51.700Z,48.46
2023-04-10T11:07:51.651Z,47.66
2023-04-10T11:08:51.640Z,49.05
2023-04-10T11:09:51.643Z,50.06
2023-04-10T11:10:51.623Z,47.33
2023-04-10T11:11:51.585Z,47.33
2023-04-10T11:12:51.905Z,47.31
2023-04-10T11:13:51.577Z,48.44
2023-04-10T11:14:51.718Z,47.81
2023-04-10T11:15:51.504Z,45.69
2023-04-10T11:16:51.759Z,46.30
2023-04-10T11:17:51.783Z,47.20
2023-04-10T11:19:02.615Z,47.23
2023-04-10T11:19:53.083Z,47.43
2023-04-10T11:20:51.467Z,47.00
2023-04-10T11:21:51.436Z,47.20
2023-04-10T11:22:51.558Z,48.14
2023-04-10T11:23:51.446Z,46.83
2023-04-10T11:24:51.417Z,48.52
2023-04-10T11:25:51.564Z,48.44
2023-04-10T11:26:51.479Z,47.13
2023-04-10T11:27:51.442Z,47.00
2023-04-10T11:28:51.388Z,46.60
2023-04-10T11:29:51.384Z,47.51
2023-04-10T11:30:51.336Z,49.02
2023-04-10T11:31:51.461Z,48.42
2023-04-10T11:32:51.430Z,49.02
2023-04-10T11:33:51.343Z,47.71
2023-04-10T11:34:51.599Z,47.20
2023-04-10T11:35:51.346Z,47.31
2023-04-10T11:36:51.387Z,47.20
2023-04-10T11:37:51.335Z,46.40
2023-04-10T11:38:51.412Z,47.20
2023-04-10T11:39:51.257Z,48.02
2023-04-10T11:40:51.266Z,46.40
2023-04-10T11:41:51.383Z,48.11
2023-04-10T11:42:51.405Z,47.11
2023-04-10T11:43:51.222Z,47.20
2023-04-10T11:44:51.289Z,46.40
2023-04-10T11:45:51.260Z,46.91
2023-04-10T11:46:51.204Z,47.31
2023-04-10T11:47:51.206Z,47.91
2023-04-10T11:48:51.352Z,48.19
2023-04-10T11:49:51.321Z,47.19
2023-04-10T11:50:51.139Z,47.26
2023-04-10T11:51:51.129Z,47.67
2023-04-10T11:52:51.176Z,47.77
2023-04-10T11:53:51.150Z,47.77
2023-04-10T11:54:51.142Z,48.96
2023-04-10T11:55:51.133Z,47.14
2023-04-10T11:56:51.081Z,48.25
2023-04-10T11:57:51.056Z,46.73
2023-04-10T11:58:51.126Z,46.64
2023-04-10T11:59:51.080Z,47.24
2023-04-10T12:00:51.119Z,46.23
2023-04-10T12:01:51.256Z,47.14
2023-04-10T12:02:51.194Z,46.43
2023-04-10T12:03:51.240Z,47.44
2023-04-10T12:04:51.094Z,47.04
2023-04-10T12:05:51.189Z,47.36
2023-04-10T12:06:51.005Z,47.26
2023-04-10T12:07:50.983Z,46.13
2023-04-10T12:08:51.028Z,46.53
2023-04-10T12:09:50.955Z,46.33
2023-04-10T12:10:50.951Z,46.45
2023-04-10T12:11:51.049Z,46.76
2023-04-10T12:12:50.936Z,46.94
2023-04-10T12:13:50.952Z,46.36
2023-04-10T12:14:50.871Z,45.75
2023-04-10T12:15:50.850Z,47.26
2023-04-10T12:16:50.924Z,46.86
2023-04-10T12:17:51.000Z,45.54
2023-04-10T12:18:50.850Z,46.45
2023-04-10T12:19:50.840Z,45.75
2023-04-10T12:20:50.820Z,45.25
2023-04-10T12:21:50.878Z,44.84
2023-04-10T12:22:50.799Z,44.84
2023-04-10T12:23:50.799Z,46.36
2023-04-10T12:24:50.814Z,46.56
2023-04-10T12:25:50.789Z,46.23
2023-04-10T12:26:50.806Z,46.33
2023-04-10T12:27:50.747Z,45.53
2023-04-10T12:28:50.768Z,45.62
2023-04-10T12:29:50.699Z,46.73
2023-04-10T12:30:50.750Z,45.90
2023-04-10T12:31:50.803Z,44.79
2023-04-10T12:32:50.713Z,44.90
2023-04-10T12:33:50.675Z,45.70
2023-04-10T12:34:50.689Z,45.40
2023-04-10T12:35:50.692Z,45.50
2023-04-10T12:36:50.636Z,46.79
2023-04-10T12:37:50.940Z,45.00
2023-04-10T12:38:50.639Z,45.98
2023-04-10T12:39:50.687Z,46.39
2023-04-10T12:40:50.595Z,44.47
2023-04-10T12:41:50.599Z,44.78
2023-04-10T12:42:50.594Z,45.38
2023-04-10T12:43:50.590Z,45.28
2023-04-10T12:44:50.645Z,43.77
2023-04-10T12:45:50.555Z,44.37
2023-04-10T12:46:50.596Z,43.79
2023-04-10T12:47:50.534Z,46.09
2023-04-10T12:48:50.521Z,44.07
2023-04-10T12:49:50.583Z,43.66
2023-04-10T12:50:50.498Z,41.95
2023-04-10T12:51:50.477Z,43.46
2023-04-10T12:52:50.575Z,45.18